sensor_id;sensor_type;location;lat;lon;timestamp;pressure;altitude;pressure_sealevel;temperature;humidity
52693;BME280;68218;51.012;-1.648;2023-04-02T00:06:54;100908.41;;;7.69;80.66
52693;BME280;68218;51.012;-1.648;2023-04-02T00:08:56;100904.16;;;7.80;80.86
52693;BME280;68218;51.012;-1.648;2023-04-02T00:11:34;100910.28;;;7.68;80.98
52693;BME280;68218;51.012;-1.648;2023-04-02T00:14:02;100913.94;;;7.74;81.11
52693;BME280;68218;51.012;-1.648;2023-04-02T00:16:27;100909.63;;;7.73;81.76
52693;BME280;68218;51.012;-1.648;2023-04-02T00:18:54;100910.44;;;7.74;81.45
52693;BME280;68218;51.012;-1.648;2023-04-02T00:21:23;100913.13;;;7.74;81.57
52693;BME280;68218;51.012;-1.648;2023-04-02T00:23:55;100915.81;;;7.74;81.40
52693;BME280;68218;51.012;-1.648;2023-04-02T00:26:23;100918.19;;;7.82;81.57
52693;BME280;68218;51.012;-1.648;2023-04-02T00:28:52;100930.72;;;7.69;82.05
52693;BME280;68218;51.012;-1.648;2023-04-02T00:31:18;100926.75;;;7.72;81.94
52693;BME280;68218;51.012;-1.648;2023-04-02T00:33:44;100925.94;;;7.72;81.91
52693;BME280;68218;51.012;-1.648;2023-04-02T00:36:10;100922.34;;;7.78;82.32
52693;BME280;68218;51.012;-1.648;2023-04-02T00:38:35;100925.38;;;7.69;82.43
52693;BME280;68218;51.012;-1.648;2023-04-02T00:41:03;100935.41;;;7.74;82.21
52693;BME280;68218;51.012;-1.648;2023-04-02T00:43:34;100939.38;;;7.72;82.52
52693;BME280;68218;51.012;-1.648;2023-04-02T00:46:02;100943.75;;;7.84;83.40
52693;BME280;68218;51.012;-1.648;2023-04-02T00:50:56;100946.06;;;7.81;82.53
52693;BME280;68218;51.012;-1.648;2023-04-02T00:53:25;100963.00;;;7.81;83.33
52693;BME280;68218;51.012;-1.648;2023-04-02T00:55:51;100962.03;;;7.76;83.04
52693;BME280;68218;51.012;-1.648;2023-04-02T01:00:49;100968.75;;;7.85;84.79
52693;BME280;68218;51.012;-1.648;2023-04-02T01:05:47;100967.63;;;7.74;83.40
52693;BME280;68218;51.012;-1.648;2023-04-02T01:10:58;100967.53;;;7.81;83.79
52693;BME280;68218;51.012;-1.648;2023-04-02T01:14:11;100978.59;;;7.73;84.44
52693;BME280;68218;51.012;-1.648;2023-04-02T01:16:19;100980.69;;;7.71;84.93
52693;BME280;68218;51.012;-1.648;2023-04-02T01:31:17;101001.19;;;7.46;88.43
52693;BME280;68218;51.012;-1.648;2023-04-02T01:33:42;101010.16;;;7.40;88.93
52693;BME280;68218;51.012;-1.648;2023-04-02T01:36:10;101001.78;;;7.30;89.69
52693;BME280;68218;51.012;-1.648;2023-04-02T01:38:52;101007.81;;;7.25;90.72
52693;BME280;68218;51.012;-1.648;2023-04-02T01:44:30;101024.06;;;7.05;93.33
52693;BME280;68218;51.012;-1.648;2023-04-02T01:46:58;101026.97;;;7.04;94.28
52693;BME280;68218;51.012;-1.648;2023-04-02T01:49:27;101020.25;;;6.94;94.88
52693;BME280;68218;51.012;-1.648;2023-04-02T01:51:54;101023.97;;;6.93;95.19
52693;BME280;68218;51.012;-1.648;2023-04-02T01:54:21;101018.81;;;6.92;95.38
52693;BME280;68218;51.012;-1.648;2023-04-02T01:56:47;101027.25;;;6.96;96.13
52693;BME280;68218;51.012;-1.648;2023-04-02T01:59:13;101030.22;;;6.87;96.14
52693;BME280;68218;51.012;-1.648;2023-04-02T02:04:11;101030.66;;;6.84;96.80
52693;BME280;68218;51.012;-1.648;2023-04-02T02:06:37;101044.22;;;6.89;96.99
52693;BME280;68218;51.012;-1.648;2023-04-02T02:09:04;101046.72;;;6.84;97.26
52693;BME280;68218;51.012;-1.648;2023-04-02T02:11:30;101043.41;;;6.89;97.66
52693;BME280;68218;51.012;-1.648;2023-04-02T02:13:57;101049.63;;;6.83;97.61
52693;BME280;68218;51.012;-1.648;2023-04-02T02:16:23;101052.13;;;6.78;96.91
52693;BME280;68218;51.012;-1.648;2023-04-02T02:18:52;101054.56;;;6.86;96.85
52693;BME280;68218;51.012;-1.648;2023-04-02T02:21:37;101050.44;;;6.83;96.67
52693;BME280;68218;51.012;-1.648;2023-04-02T02:24:03;101052.88;;;6.91;96.80
52693;BME280;68218;51.012;-1.648;2023-04-02T02:26:31;101058.66;;;6.88;96.10
52693;BME280;68218;51.012;-1.648;2023-04-02T02:29:00;101058.66;;;6.88;95.37
52693;BME280;68218;51.012;-1.648;2023-04-02T02:31:28;101055.75;;;6.90;95.21
52693;BME280;68218;51.012;-1.648;2023-04-02T02:33:57;101056.69;;;6.77;93.09
52693;BME280;68218;51.012;-1.648;2023-04-02T02:36:27;101060.00;;;6.72;92.00
52693;BME280;68218;51.012;-1.648;2023-04-02T02:47:21;101071.19;;;6.63;91.74
52693;BME280;68218;51.012;-1.648;2023-04-02T02:49:30;101075.78;;;6.55;90.56
52693;BME280;68218;51.012;-1.648;2023-04-02T02:54:31;101080.72;;;6.59;91.11
52693;BME280;68218;51.012;-1.648;2023-04-02T02:57:02;101096.41;;;6.55;90.87
52693;BME280;68218;51.012;-1.648;2023-04-02T02:59:30;101088.56;;;6.53;90.80
52693;BME280;68218;51.012;-1.648;2023-04-02T03:01:56;101094.53;;;6.55;90.68
52693;BME280;68218;51.012;-1.648;2023-04-02T03:04:22;101106.28;;;6.54;90.62
52693;BME280;68218;51.012;-1.648;2023-04-02T03:06:51;101104.25;;;6.56;91.03
52693;BME280;68218;51.012;-1.648;2023-04-02T03:12:05;101116.59;;;6.57;91.33
52693;BME280;68218;51.012;-1.648;2023-04-02T03:14:34;101114.50;;;6.60;90.86
52693;BME280;68218;51.012;-1.648;2023-04-02T03:17:11;101120.75;;;6.53;90.95
52693;BME280;68218;51.012;-1.648;2023-04-02T03:19:47;101114.09;;;6.56;91.30
52693;BME280;68218;51.012;-1.648;2023-04-02T03:22:25;101121.94;;;6.57;91.15
52693;BME280;68218;51.012;-1.648;2023-04-02T03:24:58;101122.38;;;6.54;90.53
52693;BME280;68218;51.012;-1.648;2023-04-02T03:27:25;101135.34;;;6.57;91.27
52693;BME280;68218;51.012;-1.648;2023-04-02T03:30:05;101137.22;;;6.57;90.61
52693;BME280;68218;51.012;-1.648;2023-04-02T03:32:39;101140.50;;;6.59;90.63
52693;BME280;68218;51.012;-1.648;2023-04-02T03:37:45;101151.84;;;6.54;90.53
52693;BME280;68218;51.012;-1.648;2023-04-02T03:42:45;101145.47;;;6.49;90.59
52693;BME280;68218;51.012;-1.648;2023-04-02T03:45:28;101155.81;;;6.45;89.97
52693;BME280;68218;51.012;-1.648;2023-04-02T03:48:00;101152.09;;;6.46;90.12
52693;BME280;68218;51.012;-1.648;2023-04-02T03:52:52;101158.69;;;6.50;90.27
52693;BME280;68218;51.012;-1.648;2023-04-02T03:55:21;101178.88;;;6.53;90.79
52693;BME280;68218;51.012;-1.648;2023-04-02T03:57:51;101183.22;;;6.47;90.70
52693;BME280;68218;51.012;-1.648;2023-04-02T04:02:59;101192.91;;;6.48;90.32
52693;BME280;68218;51.012;-1.648;2023-04-02T04:05:29;101191.84;;;6.49;90.28
52693;BME280;68218;51.012;-1.648;2023-04-02T04:07:58;101200.72;;;6.50;90.50
52693;BME280;68218;51.012;-1.648;2023-04-02T04:10:25;101205.50;;;6.48;89.82
52693;BME280;68218;51.012;-1.648;2023-04-02T04:12:53;101204.47;;;6.42;89.93
52693;BME280;68218;51.012;-1.648;2023-04-02T04:17:51;101207.53;;;6.46;90.29
52693;BME280;68218;51.012;-1.648;2023-04-02T04:20:19;101206.91;;;6.50;90.17
52693;BME280;68218;51.012;-1.648;2023-04-02T04:22:47;101202.81;;;6.41;90.50
52693;BME280;68218;51.012;-1.648;2023-04-02T04:25:26;101209.19;;;6.47;90.43
52693;BME280;68218;51.012;-1.648;2023-04-02T04:28:02;101214.53;;;6.53;90.58
52693;BME280;68218;51.012;-1.648;2023-04-02T04:30:46;101212.47;;;6.49;90.29
52693;BME280;68218;51.012;-1.648;2023-04-02T04:33:19;101217.03;;;6.48;90.06
52693;BME280;68218;51.012;-1.648;2023-04-02T04:35:48;101222.38;;;6.48;89.78
52693;BME280;68218;51.012;-1.648;2023-04-02T04:38:19;101221.72;;;6.60;90.26
52693;BME280;68218;51.012;-1.648;2023-04-02T04:40:52;101231.00;;;6.57;90.46
52693;BME280;68218;51.012;-1.648;2023-04-02T04:43:40;101240.94;;;6.50;90.17
52693;BME280;68218;51.012;-1.648;2023-04-02T04:46:08;101244.00;;;6.53;90.29
52693;BME280;68218;51.012;-1.648;2023-04-02T04:51:01;101238.03;;;6.58;90.53
52693;BME280;68218;51.012;-1.648;2023-04-02T04:53:28;101240.06;;;6.56;90.47
52693;BME280;68218;51.012;-1.648;2023-04-02T04:55:55;101246.06;;;6.58;90.32
52693;BME280;68218;51.012;-1.648;2023-04-02T04:58:23;101255.53;;;6.61;91.50
52693;BME280;68218;51.012;-1.648;2023-04-02T05:01:04;101251.63;;;6.56;90.22
52693;BME280;68218;51.012;-1.648;2023-04-02T05:03:44;101256.16;;;6.56;90.00
52693;BME280;68218;51.012;-1.648;2023-04-02T05:08:44;101260.47;;;6.64;89.92
52693;BME280;68218;51.012;-1.648;2023-04-02T05:11:18;101268.31;;;6.59;89.25
52693;BME280;68218;51.012;-1.648;2023-04-02T05:13:52;101264.59;;;6.60;89.19
52693;BME280;68218;51.012;-1.648;2023-04-02T05:18:51;101273.66;;;6.65;89.23
52693;BME280;68218;51.012;-1.648;2023-04-02T05:21:22;101284.38;;;6.65;89.40
52693;BME280;68218;51.012;-1.648;2023-04-02T05:26:18;101297.59;;;6.67;89.54
52693;BME280;68218;51.012;-1.648;2023-04-02T05:28:53;101295.94;;;6.66;88.99
52693;BME280;68218;51.012;-1.648;2023-04-02T05:31:25;101307.66;;;6.65;89.02
52693;BME280;68218;51.012;-1.648;2023-04-02T05:33:52;101314.09;;;6.64;88.23
52693;BME280;68218;51.012;-1.648;2023-04-02T05:36:19;101321.50;;;6.68;88.87
52693;BME280;68218;51.012;-1.648;2023-04-02T05:38:46;101319.44;;;6.70;89.06
52693;BME280;68218;51.012;-1.648;2023-04-02T05:43:56;101327.28;;;6.65;88.46
52693;BME280;68218;51.012;-1.648;2023-04-02T05:46:24;101326.22;;;6.66;87.69
52693;BME280;68218;51.012;-1.648;2023-04-02T05:48:54;101341.88;;;6.83;88.67
52693;BME280;68218;51.012;-1.648;2023-04-02T05:51:28;101353.88;;;6.73;87.68
52693;BME280;68218;51.012;-1.648;2023-04-02T05:53:56;101349.94;;;6.76;87.89
52693;BME280;68218;51.012;-1.648;2023-04-02T05:56:24;101357.56;;;6.72;87.87
52693;BME280;68218;51.012;-1.648;2023-04-02T06:06:20;101372.41;;;6.75;87.54
52693;BME280;68218;51.012;-1.648;2023-04-02T06:08:54;101380.03;;;6.78;87.94
52693;BME280;68218;51.012;-1.648;2023-04-02T06:11:31;101372.41;;;6.75;87.56
52693;BME280;68218;51.012;-1.648;2023-04-02T06:14:02;101385.19;;;6.66;87.06
52693;BME280;68218;51.012;-1.648;2023-04-02T06:16:28;101384.16;;;6.74;87.31
52693;BME280;68218;51.012;-1.648;2023-04-02T06:18:54;101377.56;;;6.70;87.43
52693;BME280;68218;51.012;-1.648;2023-04-02T06:21:20;101385.19;;;6.73;86.89
52693;BME280;68218;51.012;-1.648;2023-04-02T06:23:51;101382.91;;;6.77;87.02
52693;BME280;68218;51.012;-1.648;2023-04-02T06:26:26;101389.53;;;6.74;87.01
52693;BME280;68218;51.012;-1.648;2023-04-02T06:29:16;101386.25;;;6.72;86.76
52693;BME280;68218;51.012;-1.648;2023-04-02T06:31:44;101389.13;;;6.77;86.98
52693;BME280;68218;51.012;-1.648;2023-04-02T06:34:14;101390.75;;;6.78;87.23
52693;BME280;68218;51.012;-1.648;2023-04-02T06:36:40;101396.13;;;6.78;86.90
52693;BME280;68218;51.012;-1.648;2023-04-02T06:39:07;101395.50;;;6.76;86.68
52693;BME280;68218;51.012;-1.648;2023-04-02T06:41:33;101407.88;;;6.77;86.68
52693;BME280;68218;51.012;-1.648;2023-04-02T06:43:59;101403.75;;;6.81;87.18
52693;BME280;68218;51.012;-1.648;2023-04-02T06:48:52;101421.09;;;6.72;87.62
52693;BME280;68218;51.012;-1.648;2023-04-02T06:51:20;101432.63;;;6.72;88.06
52693;BME280;68218;51.012;-1.648;2023-04-02T06:53:48;101427.88;;;6.68;88.67
52693;BME280;68218;51.012;-1.648;2023-04-02T06:56:28;101434.69;;;6.64;89.19
52693;BME280;68218;51.012;-1.648;2023-04-02T06:59:00;101424.59;;;6.66;89.74
52693;BME280;68218;51.012;-1.648;2023-04-02T07:01:29;101432.84;;;6.64;90.10
52693;BME280;68218;51.012;-1.648;2023-04-02T07:03:55;101425.19;;;6.61;89.83
52693;BME280;68218;51.012;-1.648;2023-04-02T07:06:21;101436.97;;;6.60;89.91
52693;BME280;68218;51.012;-1.648;2023-04-02T07:08:49;101439.00;;;6.65;90.07
52693;BME280;68218;51.012;-1.648;2023-04-02T07:11:15;101445.22;;;6.72;90.14
52693;BME280;68218;51.012;-1.648;2023-04-02T07:13:41;101447.66;;;6.80;89.87
52693;BME280;68218;51.012;-1.648;2023-04-02T07:16:09;101450.13;;;6.88;89.49
52693;BME280;68218;51.012;-1.648;2023-04-02T07:18:40;101449.13;;;6.89;88.92
52693;BME280;68218;51.012;-1.648;2023-04-02T07:21:05;101451.00;;;6.89;88.91
52693;BME280;68218;51.012;-1.648;2023-04-02T07:23:31;101453.03;;;6.87;88.62
52693;BME280;68218;51.012;-1.648;2023-04-02T07:25:56;101455.09;;;6.98;89.16
52693;BME280;68218;51.012;-1.648;2023-04-02T07:28:22;101451.00;;;6.89;88.62
52693;BME280;68218;51.012;-1.648;2023-04-02T07:30:48;101456.75;;;6.92;88.81
52693;BME280;68218;51.012;-1.648;2023-04-02T07:33:17;101466.63;;;6.92;88.12
52693;BME280;68218;51.012;-1.648;2023-04-02T07:35:43;101480.91;;;6.99;88.48
52693;BME280;68218;51.012;-1.648;2023-04-02T07:38:09;101480.25;;;7.04;88.14
52693;BME280;68218;51.012;-1.648;2023-04-02T07:40:34;101484.59;;;7.11;88.05
52693;BME280;68218;51.012;-1.648;2023-04-02T07:43:00;101483.13;;;7.09;87.62
52693;BME280;68218;51.012;-1.648;2023-04-02T07:45:25;101494.25;;;7.12;87.69
52693;BME280;68218;51.012;-1.648;2023-04-02T07:47:51;101495.91;;;7.34;87.34
52693;BME280;68218;51.012;-1.648;2023-04-02T07:50:16;101494.00;;;7.54;87.04
52693;BME280;68218;51.012;-1.648;2023-04-02T07:52:42;101497.75;;;7.26;86.16
52693;BME280;68218;51.012;-1.648;2023-04-02T07:55:08;101499.19;;;7.36;87.12
52693;BME280;68218;51.012;-1.648;2023-04-02T07:57:51;101509.53;;;7.32;86.80
52693;BME280;68218;51.012;-1.648;2023-04-02T08:00:17;101513.22;;;7.31;87.09
52693;BME280;68218;51.012;-1.648;2023-04-02T08:02:43;101521.09;;;7.19;87.19
52693;BME280;68218;51.012;-1.648;2023-04-02T08:05:08;101513.66;;;7.21;87.03
52693;BME280;68218;51.012;-1.648;2023-04-02T08:07:34;101524.81;;;7.25;87.41
52693;BME280;68218;51.012;-1.648;2023-04-02T08:10:00;101541.53;;;7.13;87.22
52693;BME280;68218;51.012;-1.648;2023-04-02T08:12:25;101545.44;;;7.11;87.98
52693;BME280;68218;51.012;-1.648;2023-04-02T08:14:51;101545.88;;;6.94;88.54
52693;BME280;68218;51.012;-1.648;2023-04-02T08:17:16;101539.25;;;6.77;88.83
52693;BME280;68218;51.012;-1.648;2023-04-02T08:19:41;101546.66;;;6.75;89.44
52693;BME280;68218;51.012;-1.648;2023-04-02T08:22:08;101547.72;;;6.74;89.43
52693;BME280;68218;51.012;-1.648;2023-04-02T08:24:33;101559.03;;;6.76;89.64
52693;BME280;68218;51.012;-1.648;2023-04-02T08:26:59;101570.19;;;6.73;88.15
52693;BME280;68218;51.012;-1.648;2023-04-02T08:29:24;101561.72;;;6.69;87.01
52693;BME280;68218;51.012;-1.648;2023-04-02T08:31:49;101571.19;;;6.59;86.91
52693;BME280;68218;51.012;-1.648;2023-04-02T08:34:15;101569.75;;;6.63;87.09
52693;BME280;68218;51.012;-1.648;2023-04-02T08:36:40;101572.84;;;6.66;86.77
52693;BME280;68218;51.012;-1.648;2023-04-02T08:39:07;101583.38;;;6.68;86.96
52693;BME280;68218;51.012;-1.648;2023-04-02T08:41:37;101574.72;;;6.66;86.72
52693;BME280;68218;51.012;-1.648;2023-04-02T08:46:40;101577.59;;;6.71;86.29
52693;BME280;68218;51.012;-1.648;2023-04-02T08:51:57;101590.00;;;6.72;86.05
52693;BME280;68218;51.012;-1.648;2023-04-02T08:54:27;101590.63;;;6.81;86.17
52693;BME280;68218;51.012;-1.648;2023-04-02T08:59:34;101593.31;;;7.14;85.62
52693;BME280;68218;51.012;-1.648;2023-04-02T09:04:37;101611.28;;;7.34;84.15
52693;BME280;68218;51.012;-1.648;2023-04-02T09:07:04;101609.84;;;7.24;83.75
52693;BME280;68218;51.012;-1.648;2023-04-02T09:09:31;101615.59;;;7.21;83.54
52693;BME280;68218;51.012;-1.648;2023-04-02T09:12:00;101604.06;;;7.34;83.27
52693;BME280;68218;51.012;-1.648;2023-04-02T09:14:40;101609.22;;;7.42;83.80
52693;BME280;68218;51.012;-1.648;2023-04-02T09:17:40;101599.09;;;7.51;82.69
52693;BME280;68218;51.012;-1.648;2023-04-02T09:20:15;101605.28;;;7.58;80.80
52693;BME280;68218;51.012;-1.648;2023-04-02T09:22:41;101616.63;;;7.74;81.21
52693;BME280;68218;51.012;-1.648;2023-04-02T09:25:13;101606.28;;;7.71;80.49
52693;BME280;68218;51.012;-1.648;2023-04-02T09:27:38;101615.00;;;7.59;80.22
52693;BME280;68218;51.012;-1.648;2023-04-02T09:32:43;101625.13;;;7.44;81.44
52693;BME280;68218;51.012;-1.648;2023-04-02T09:37:37;101629.84;;;7.42;80.57
52693;BME280;68218;51.012;-1.648;2023-04-02T09:40:14;101630.06;;;7.27;81.18
52693;BME280;68218;51.012;-1.648;2023-04-02T09:42:40;101640.81;;;7.27;81.97
52693;BME280;68218;51.012;-1.648;2023-04-02T09:45:19;101649.22;;;7.04;82.87
52693;BME280;68218;51.012;-1.648;2023-04-02T09:47:45;101649.00;;;6.99;83.64
52693;BME280;68218;51.012;-1.648;2023-04-02T09:52:39;101658.06;;;6.84;84.23
52693;BME280;68218;51.012;-1.648;2023-04-02T09:57:30;101663.84;;;6.88;84.45
52693;BME280;68218;51.012;-1.648;2023-04-02T10:00:08;101671.47;;;6.84;83.94
52693;BME280;68218;51.012;-1.648;2023-04-02T10:02:36;101675.59;;;6.73;83.22
52693;BME280;68218;51.012;-1.648;2023-04-02T10:05:02;101687.25;;;6.59;83.65
52693;BME280;68218;51.012;-1.648;2023-04-02T10:07:29;101701.16;;;6.76;85.18
52693;BME280;68218;51.012;-1.648;2023-04-02T10:10:16;101710.00;;;6.77;83.27
52693;BME280;68218;51.012;-1.648;2023-04-02T10:12:43;101707.75;;;6.80;82.70
52693;BME280;68218;51.012;-1.648;2023-04-02T10:15:17;101707.22;;;7.05;82.76
52693;BME280;68218;51.012;-1.648;2023-04-02T10:17:45;101712.19;;;7.08;81.62
52693;BME280;68218;51.012;-1.648;2023-04-02T10:20:16;101711.56;;;7.19;80.88
52693;BME280;68218;51.012;-1.648;2023-04-02T10:22:43;101715.13;;;7.46;81.01
52693;BME280;68218;51.012;-1.648;2023-04-02T10:25:15;101717.00;;;7.46;78.66
52693;BME280;68218;51.012;-1.648;2023-04-02T10:27:44;101714.91;;;7.35;78.78
52693;BME280;68218;51.012;-1.648;2023-04-02T10:32:43;101721.75;;;7.57;78.05
52693;BME280;68218;51.012;-1.648;2023-04-02T10:40:26;101734.97;;;7.79;76.10
52693;BME280;68218;51.012;-1.648;2023-04-02T10:45:41;101750.44;;;7.50;74.57
52693;BME280;68218;51.012;-1.648;2023-04-02T10:53:10;101749.00;;;7.41;76.62
52693;BME280;68218;51.012;-1.648;2023-04-02T10:55:39;101749.63;;;7.43;75.82
52693;BME280;68218;51.012;-1.648;2023-04-02T10:58:12;101748.78;;;7.36;75.79
52693;BME280;68218;51.012;-1.648;2023-04-02T11:00:42;101750.22;;;7.45;76.17
52693;BME280;68218;51.012;-1.648;2023-04-02T11:03:12;101753.16;;;7.63;75.14
52693;BME280;68218;51.012;-1.648;2023-04-02T11:05:54;101744.69;;;7.53;74.73
52693;BME280;68218;51.012;-1.648;2023-04-02T11:11:06;101748.19;;;7.74;73.71
52693;BME280;68218;51.012;-1.648;2023-04-02T11:16:10;101749.44;;;7.78;73.71
52693;BME280;68218;51.012;-1.648;2023-04-02T11:18:35;101763.28;;;7.61;72.67
52693;BME280;68218;51.012;-1.648;2023-04-02T11:21:43;101759.34;;;7.50;72.92
52693;BME280;68218;51.012;-1.648;2023-04-02T11:23:57;101756.47;;;7.72;73.96
52693;BME280;68218;51.012;-1.648;2023-04-02T11:31:30;101766.56;;;7.57;73.02
52693;BME280;68218;51.012;-1.648;2023-04-02T11:33:55;101767.63;;;7.76;74.09
52693;BME280;68218;51.012;-1.648;2023-04-02T11:39:06;101773.81;;;7.69;72.71
52693;BME280;68218;51.012;-1.648;2023-04-02T11:44:21;101801.03;;;7.46;72.07
52693;BME280;68218;51.012;-1.648;2023-04-02T11:46:47;101798.16;;;7.55;73.61
52693;BME280;68218;51.012;-1.648;2023-04-02T11:51:56;101788.06;;;7.70;72.12
52693;BME280;68218;51.012;-1.648;2023-04-02T11:54:25;101790.13;;;7.88;71.93
52693;BME280;68218;51.012;-1.648;2023-04-02T11:56:57;101783.28;;;8.32;70.45
52693;BME280;68218;51.012;-1.648;2023-04-02T11:59:40;101796.97;;;7.97;69.53
52693;BME280;68218;51.012;-1.648;2023-04-02T12:02:27;101805.84;;;8.11;69.57
52693;BME280;68218;51.012;-1.648;2023-04-02T12:07:48;101805.44;;;7.87;70.40
52693;BME280;68218;51.012;-1.648;2023-04-02T12:12:41;101815.56;;;7.92;70.29
52693;BME280;68218;51.012;-1.648;2023-04-02T12:17:51;101817.22;;;7.86;70.18
52693;BME280;68218;51.012;-1.648;2023-04-02T12:20:17;101823.44;;;7.94;70.30
52693;BME280;68218;51.012;-1.648;2023-04-02T12:22:49;101822.16;;;7.90;70.80
52693;BME280;68218;51.012;-1.648;2023-04-02T12:27:46;101837.03;;;7.72;70.27
52693;BME280;68218;51.012;-1.648;2023-04-02T12:30:19;101838.50;;;7.75;70.11
52693;BME280;68218;51.012;-1.648;2023-04-02T12:32:44;101832.50;;;7.99;70.60
52693;BME280;68218;51.012;-1.648;2023-04-02T12:38:15;101829.59;;;7.87;70.28
52693;BME280;68218;51.012;-1.648;2023-04-02T12:40:49;101821.78;;;7.99;69.56
52693;BME280;68218;51.012;-1.648;2023-04-02T12:43:21;101827.56;;;8.23;69.86
52693;BME280;68218;51.012;-1.648;2023-04-02T12:45:50;101833.13;;;8.55;69.87
52693;BME280;68218;51.012;-1.648;2023-04-02T12:48:15;101824.66;;;8.58;68.53
52693;BME280;68218;51.012;-1.648;2023-04-02T12:50:41;101831.72;;;8.46;68.04
52693;BME280;68218;51.012;-1.648;2023-04-02T12:53:09;101831.47;;;8.27;67.63
52693;BME280;68218;51.012;-1.648;2023-04-02T12:55:45;101835.41;;;8.51;67.54
52693;BME280;68218;51.012;-1.648;2023-04-02T12:58:22;101824.03;;;8.49;68.67
52693;BME280;68218;51.012;-1.648;2023-04-02T13:00:49;101823.44;;;8.54;67.26
52693;BME280;68218;51.012;-1.648;2023-04-02T13:05:43;101835.41;;;8.31;66.94
52693;BME280;68218;51.012;-1.648;2023-04-02T13:08:14;101837.69;;;8.48;67.00
52693;BME280;68218;51.012;-1.648;2023-04-02T13:10:40;101834.19;;;8.54;67.38
52693;BME280;68218;51.012;-1.648;2023-04-02T13:13:11;101832.72;;;8.58;67.34
52693;BME280;68218;51.012;-1.648;2023-04-02T13:15:38;101829.63;;;8.61;66.70
52693;BME280;68218;51.012;-1.648;2023-04-02T13:20:41;101826.69;;;8.83;65.06
52693;BME280;68218;51.012;-1.648;2023-04-02T13:25:51;101829.81;;;8.53;65.39
52693;BME280;68218;51.012;-1.648;2023-04-02T13:28:16;101827.31;;;8.65;65.34
52693;BME280;68218;51.012;-1.648;2023-04-02T13:30:42;101826.31;;;8.59;65.03
52693;BME280;68218;51.012;-1.648;2023-04-02T13:33:08;101824.38;;;8.86;65.21
52693;BME280;68218;51.012;-1.648;2023-04-02T13:35:33;101829.69;;;9.51;63.45
52693;BME280;68218;51.012;-1.648;2023-04-02T13:37:58;101828.75;;;9.71;59.75
52693;BME280;68218;51.012;-1.648;2023-04-02T13:40:26;101826.88;;;9.33;61.13
52693;BME280;68218;51.012;-1.648;2023-04-02T13:42:52;101818.75;;;9.46;61.70
52693;BME280;68218;51.012;-1.648;2023-04-02T13:47:43;101830.06;;;9.16;61.85
52693;BME280;68218;51.012;-1.648;2023-04-02T13:50:08;101818.13;;;9.76;62.91
52693;BME280;68218;51.012;-1.648;2023-04-02T13:52:36;101820.47;;;9.66;59.99
52693;BME280;68218;51.012;-1.648;2023-04-02T13:55:02;101818.03;;;9.57;62.48
52693;BME280;68218;51.012;-1.648;2023-04-02T13:57:27;101817.34;;;9.69;60.52
52693;BME280;68218;51.012;-1.648;2023-04-02T13:59:52;101813.00;;;9.68;64.92
52693;BME280;68218;51.012;-1.648;2023-04-02T14:02:19;101822.44;;;9.84;60.55
52693;BME280;68218;51.012;-1.648;2023-04-02T14:04:49;101813.69;;;9.88;59.08
52693;BME280;68218;51.012;-1.648;2023-04-02T14:09:55;101817.03;;;10.78;57.32
52693;BME280;68218;51.012;-1.648;2023-04-02T14:23:05;101817.31;;;10.26;57.62
52693;BME280;68218;51.012;-1.648;2023-04-02T14:25:40;101815.41;;;10.77;57.10
52693;BME280;68218;51.012;-1.648;2023-04-02T14:33:48;101809.09;;;10.46;56.62
52693;BME280;68218;51.012;-1.648;2023-04-02T14:41:13;101798.03;;;11.94;53.27
52693;BME280;68218;51.012;-1.648;2023-04-02T14:43:49;101799.81;;;10.79;56.29
52693;BME280;68218;51.012;-1.648;2023-04-02T14:46:16;101797.31;;;10.59;58.38
52693;BME280;68218;51.012;-1.648;2023-04-02T14:48:49;101797.84;;;10.24;57.95
52693;BME280;68218;51.012;-1.648;2023-04-02T14:53:51;101789.53;;;10.69;56.30
52693;BME280;68218;51.012;-1.648;2023-04-02T14:56:18;101783.16;;;10.63;54.90
52693;BME280;68218;51.012;-1.648;2023-04-02T14:58:45;101787.19;;;11.10;55.27
52693;BME280;68218;51.012;-1.648;2023-04-02T15:01:13;101793.44;;;10.73;53.90
52693;BME280;68218;51.012;-1.648;2023-04-02T15:04:03;101788.84;;;11.11;52.86
52693;BME280;68218;51.012;-1.648;2023-04-02T15:06:30;101794.94;;;10.69;54.72
52693;BME280;68218;51.012;-1.648;2023-04-02T15:09:01;101785.28;;;11.29;53.19
52693;BME280;68218;51.012;-1.648;2023-04-02T15:11:33;101788.81;;;11.71;53.03
52693;BME280;68218;51.012;-1.648;2023-04-02T15:15:01;101786.88;;;11.48;55.55
52693;BME280;68218;51.012;-1.648;2023-04-02T15:16:53;101775.59;;;11.93;52.26
52693;BME280;68218;51.012;-1.648;2023-04-02T15:19:19;101781.84;;;11.21;55.30
52693;BME280;68218;51.012;-1.648;2023-04-02T15:35:07;101771.28;;;11.01;54.81
52693;BME280;68218;51.012;-1.648;2023-04-02T15:45:40;101778.06;;;10.74;56.73
52693;BME280;68218;51.012;-1.648;2023-04-02T15:55:58;101777.69;;;10.52;54.50
52693;BME280;68218;51.012;-1.648;2023-04-02T16:01:34;101784.06;;;10.39;54.72
52693;BME280;68218;51.012;-1.648;2023-04-02T16:09:13;101787.66;;;10.51;55.10
52693;BME280;68218;51.012;-1.648;2023-04-02T16:11:41;101798.53;;;10.63;55.20
52693;BME280;68218;51.012;-1.648;2023-04-02T16:16:38;101791.41;;;10.50;53.50
52693;BME280;68218;51.012;-1.648;2023-04-02T16:19:06;101799.19;;;10.40;54.29
52693;BME280;68218;51.012;-1.648;2023-04-02T16:21:37;101798.28;;;10.46;54.06
52693;BME280;68218;51.012;-1.648;2023-04-02T16:24:08;101802.78;;;10.34;53.44
52693;BME280;68218;51.012;-1.648;2023-04-02T16:29:23;101809.28;;;10.19;53.21
52693;BME280;68218;51.012;-1.648;2023-04-02T16:47:42;101833.28;;;10.27;54.50
52693;BME280;68218;51.012;-1.648;2023-04-02T16:52:40;101837.03;;;10.26;56.39
52693;BME280;68218;51.012;-1.648;2023-04-02T17:05:46;101835.38;;;10.00;54.66
52693;BME280;68218;51.012;-1.648;2023-04-02T17:08:29;101851.16;;;9.97;54.09
52693;BME280;68218;51.012;-1.648;2023-04-02T17:11:00;101837.84;;;10.02;55.61
52693;BME280;68218;51.012;-1.648;2023-04-02T17:16:00;101845.25;;;9.81;55.19
52693;BME280;68218;51.012;-1.648;2023-04-02T17:18:27;101853.94;;;9.83;56.41
52693;BME280;68218;51.012;-1.648;2023-04-02T17:20:52;101857.91;;;9.81;56.26